sensor_id;sensor_type;location;lat;lon;timestamp;pressure;altitude;pressure_sealevel;temperature;humidity
11621;BME280;5866;49.094;11.900;2024-03-23T00:53:25;95528.81;;;10.94;100.00
11621;BME280;5866;49.094;11.900;2024-03-23T00:55:51;95527.25;;;10.85;100.00
11621;BME280;5866;49.094;11.900;2024-03-23T00:58:17;95534.13;;;10.94;100.00
11621;BME280;5866;49.094;11.900;2024-03-23T01:00:43;95522.84;;;10.77;100.00
11621;BME280;5866;49.094;11.900;2024-03-23T01:03:10;95516.34;;;10.80;100.00
11621;BME280;5866;49.094;11.900;2024-03-23T01:05:36;95520.00;;;10.79;100.00
11621;BME280;5866;49.094;11.900;2024-03-23T01:08:03;95521.13;;;10.24;100.00
11621;BME280;5866;49.094;11.900;2024-03-23T01:10:30;95524.81;;;9.93;100.00
11621;BME280;5866;49.094;11.900;2024-03-23T01:12:57;95520.47;;;9.69;100.00
11621;BME280;5866;49.094;11.900;2024-03-23T01:15:22;95522.38;;;9.83;100.00
11621;BME280;5866;49.094;11.900;2024-03-23T01:17:49;95512.50;;;10.00;100.00
11621;BME280;5866;49.094;11.900;2024-03-23T01:20:15;95498.63;;;10.20;100.00
11621;BME280;5866;49.094;11.900;2024-03-23T01:22:42;95491.31;;;10.22;100.00
11621;BME280;5866;49.094;11.900;2024-03-23T01:25:08;95491.22;;;10.38;100.00
11621;BME280;5866;49.094;11.900;2024-03-23T01:27:36;95474.47;;;10.90;100.00
11621;BME280;5866;49.094;11.900;2024-03-23T01:30:01;95467.84;;;10.57;100.00
11621;BME280;5866;49.094;11.900;2024-03-23T01:32:28;95466.44;;;10.46;100.00
11621;BME280;5866;49.094;11.900;2024-03-23T01:34:54;95461.53;;;10.20;100.00
11621;BME280;5866;49.094;11.900;2024-03-23T01:37:20;95464.63;;;10.01;100.00
11621;BME280;5866;49.094;11.900;2024-03-23T01:39:46;95465.34;;;9.95;100.00
11621;BME280;5866;49.094;11.900;2024-03-23T01:42:13;95452.03;;;10.11;100.00
11621;BME280;5866;49.094;11.900;2024-03-23T01:44:40;95450.78;;;10.22;100.00
11621;BME280;5866;49.094;11.900;2024-03-23T01:47:06;95445.88;;;10.11;100.00
11621;BME280;5866;49.094;11.900;2024-03-23T01:49:33;95446.56;;;10.05;100.00
11621;BME280;5866;49.094;11.900;2024-03-23T01:51:59;95438.44;;;10.06;100.00
11621;BME280;5866;49.094;11.900;2024-03-23T01:54:25;95437.41;;;10.15;100.00
11621;BME280;5866;49.094;11.900;2024-03-23T01:56:54;95441.16;;;9.98;100.00
11621;BME280;5866;49.094;11.900;2024-03-23T01:59:20;95443.41;;;10.09;100.00
11621;BME280;5866;49.094;11.900;2024-03-23T02:01:47;95432.69;;;10.03;100.00
11621;BME280;5866;49.094;11.900;2024-03-23T02:04:13;95431.38;;;10.21;100.00
11621;BME280;5866;49.094;11.900;2024-03-23T02:06:40;95422.31;;;10.53;100.00
11621;BME280;5866;49.094;11.900;2024-03-23T02:09:06;95416.09;;;10.61;100.00
11621;BME280;5866;49.094;11.900;2024-03-23T02:11:32;95410.59;;;10.48;100.00
11621;BME280;5866;49.094;11.900;2024-03-23T02:13:58;95411.34;;;10.71;100.00
11621;BME280;5866;49.094;11.900;2024-03-23T02:16:25;95408.69;;;10.71;100.00
11621;BME280;5866;49.094;11.900;2024-03-23T02:18:52;95402.19;;;10.59;100.00
11621;BME280;5866;49.094;11.900;2024-03-23T02:21:18;95397.09;;;10.72;100.00
11621;BME280;5866;49.094;11.900;2024-03-23T02:23:45;95396.44;;;10.84;100.00
11621;BME280;5866;49.094;11.900;2024-03-23T02:26:12;95390.09;;;11.00;100.00
11621;BME280;5866;49.094;11.900;2024-03-23T02:28:39;95400.81;;;10.77;100.00
11621;BME280;5866;49.094;11.900;2024-03-23T02:31:06;95393.31;;;10.81;100.00
11621;BME280;5866;49.094;11.900;2024-03-23T02:33:32;95396.16;;;10.65;100.00
11621;BME280;5866;49.094;11.900;2024-03-23T02:35:59;95392.75;;;10.42;100.00
11621;BME280;5866;49.094;11.900;2024-03-23T02:38:25;95388.75;;;10.08;100.00
11621;BME280;5866;49.094;11.900;2024-03-23T02:40:53;95395.06;;;10.07;100.00
11621;BME280;5866;49.094;11.900;2024-03-23T02:43:19;95391.44;;;9.63;100.00
11621;BME280;5866;49.094;11.900;2024-03-23T02:45:45;95395.81;;;9.25;100.00
11621;BME280;5866;49.094;11.900;2024-03-23T02:48:11;95398.88;;;9.37;100.00
11621;BME280;5866;49.094;11.900;2024-03-23T02:50:38;95398.09;;;9.82;100.00
11621;BME280;5866;49.094;11.900;2024-03-23T02:53:03;95396.94;;;9.99;100.00
11621;BME280;5866;49.094;11.900;2024-03-23T02:55:30;95393.06;;;9.87;100.00
11621;BME280;5866;49.094;11.900;2024-03-23T02:57:57;95386.19;;;9.78;100.00
11621;BME280;5866;49.094;11.900;2024-03-23T03:00:27;95385.22;;;10.16;100.00
11621;BME280;5866;49.094;11.900;2024-03-23T03:02:53;95386.09;;;10.46;100.00
11621;BME280;5866;49.094;11.900;2024-03-23T03:05:19;95377.69;;;10.86;100.00
11621;BME280;5866;49.094;11.900;2024-03-23T03:07:45;95360.28;;;10.98;100.00
11621;BME280;5866;49.094;11.900;2024-03-23T03:10:12;95355.44;;;11.01;100.00
11621;BME280;5866;49.094;11.900;2024-03-23T03:12:37;95349.81;;;11.11;100.00
11621;BME280;5866;49.094;11.900;2024-03-23T03:15:06;95334.94;;;11.10;100.00
11621;BME280;5866;49.094;11.900;2024-03-23T03:17:33;95331.84;;;10.92;100.00
11621;BME280;5866;49.094;11.900;2024-03-23T03:20:00;95333.47;;;11.07;100.00
11621;BME280;5866;49.094;11.900;2024-03-23T03:22:25;95333.97;;;11.17;100.00
11621;BME280;5866;49.094;11.900;2024-03-23T03:24:52;95327.72;;;11.25;100.00
11621;BME280;5866;49.094;11.900;2024-03-23T03:27:18;95324.84;;;11.41;100.00
11621;BME280;5866;49.094;11.900;2024-03-23T03:29:44;95330.03;;;11.28;100.00
11621;BME280;5866;49.094;11.900;2024-03-23T03:32:11;95322.06;;;11.28;100.00
11621;BME280;5866;49.094;11.900;2024-03-23T03:34:38;95315.09;;;11.48;100.00
11621;BME280;5866;49.094;11.900;2024-03-23T03:37:04;95299.91;;;11.21;100.00
11621;BME280;5866;49.094;11.900;2024-03-23T03:39:31;95315.19;;;10.83;100.00
11621;BME280;5866;49.094;11.900;2024-03-23T03:41:56;95306.44;;;10.68;100.00
11621;BME280;5866;49.094;11.900;2024-03-23T03:44:23;95304.44;;;10.56;100.00
11621;BME280;5866;49.094;11.900;2024-03-23T03:46:49;95303.34;;;10.50;100.00
11621;BME280;5866;49.094;11.900;2024-03-23T03:49:17;95306.66;;;10.37;100.00
11621;BME280;5866;49.094;11.900;2024-03-23T03:51:42;95306.56;;;10.46;100.00
11621;BME280;5866;49.094;11.900;2024-03-23T03:54:09;95293.19;;;10.83;100.00
11621;BME280;5866;49.094;11.900;2024-03-23T03:56:35;95281.38;;;10.71;100.00
11621;BME280;5866;49.094;11.900;2024-03-23T03:59:01;95279.94;;;10.39;100.00
11621;BME280;5866;49.094;11.900;2024-03-23T04:01:27;95276.59;;;10.30;100.00
11621;BME280;5866;49.094;11.900;2024-03-23T04:03:54;95278.22;;;10.31;100.00
11621;BME280;5866;49.094;11.900;2024-03-23T04:06:21;95265.91;;;10.24;100.00
11621;BME280;5866;49.094;11.900;2024-03-23T04:08:47;95267.44;;;10.33;100.00
11621;BME280;5866;49.094;11.900;2024-03-23T04:11:13;95269.59;;;10.00;100.00
11621;BME280;5866;49.094;11.900;2024-03-23T04:13:40;95273.13;;;10.15;100.00
11621;BME280;5866;49.094;11.900;2024-03-23T04:16:07;95261.06;;;10.27;100.00
11621;BME280;5866;49.094;11.900;2024-03-23T04:18:34;95258.94;;;10.23;100.00
11621;BME280;5866;49.094;11.900;2024-03-23T04:21:00;95254.28;;;10.39;100.00
11621;BME280;5866;49.094;11.900;2024-03-23T04:23:28;95249.72;;;10.33;100.00
11621;BME280;5866;49.094;11.900;2024-03-23T04:25:54;95245.97;;;9.99;100.00
11621;BME280;5866;49.094;11.900;2024-03-23T04:28:20;95256.25;;;9.79;100.00
11621;BME280;5866;49.094;11.900;2024-03-23T04:30:46;95250.59;;;9.82;100.00
11621;BME280;5866;49.094;11.900;2024-03-23T04:33:13;95250.50;;;9.90;100.00
11621;BME280;5866;49.094;11.900;2024-03-23T04:35:39;95244.94;;;10.00;100.00
11621;BME280;5866;49.094;11.900;2024-03-23T04:38:05;95242.22;;;10.22;100.00
11621;BME280;5866;49.094;11.900;2024-03-23T04:40:33;95232.44;;;10.37;100.00
11621;BME280;5866;49.094;11.900;2024-03-23T04:43:00;95234.09;;;10.38;100.00
11621;BME280;5866;49.094;11.900;2024-03-23T04:45:27;95237.44;;;10.62;100.00
11621;BME280;5866;49.094;11.900;2024-03-23T04:47:53;95224.66;;;10.51;100.00
11621;BME280;5866;49.094;11.900;2024-03-23T04:50:20;95236.41;;;10.63;100.00
11621;BME280;5866;49.094;11.900;2024-03-23T04:52:47;95228.88;;;11.02;100.00
11621;BME280;5866;49.094;11.900;2024-03-23T04:55:13;95219.91;;;11.45;100.00
11621;BME280;5866;49.094;11.900;2024-03-23T04:57:41;95222.41;;;11.53;100.00
11621;BME280;5866;49.094;11.900;2024-03-23T05:00:08;95212.72;;;11.18;100.00
11621;BME280;5866;49.094;11.900;2024-03-23T05:02:43;95210.69;;;11.20;100.00
11621;BME280;5866;49.094;11.900;2024-03-23T05:05:10;95213.91;;;11.15;100.00
11621;BME280;5866;49.094;11.900;2024-03-23T05:07:36;95211.34;;;11.22;100.00
11621;BME280;5866;49.094;11.900;2024-03-23T05:10:03;95197.59;;;11.18;100.00
11621;BME280;5866;49.094;11.900;2024-03-23T05:12:29;95201.72;;;11.21;100.00
11621;BME280;5866;49.094;11.900;2024-03-23T05:14:58;95199.47;;;11.46;100.00
11621;BME280;5866;49.094;11.900;2024-03-23T05:17:23;95193.72;;;11.42;100.00
11621;BME280;5866;49.094;11.900;2024-03-23T05:19:50;95186.34;;;11.65;100.00
11621;BME280;5866;49.094;11.900;2024-03-23T05:22:16;95188.38;;;11.63;100.00
11621;BME280;5866;49.094;11.900;2024-03-23T05:24:44;95180.31;;;11.50;100.00
11621;BME280;5866;49.094;11.900;2024-03-23T05:27:10;95176.59;;;11.45;100.00
11621;BME280;5866;49.094;11.900;2024-03-23T05:29:37;95168.06;;;11.49;100.00
11621;BME280;5866;49.094;11.900;2024-03-23T05:32:04;95166.84;;;11.52;100.00
11621;BME280;5866;49.094;11.900;2024-03-23T05:34:31;95159.72;;;11.31;100.00
11621;BME280;5866;49.094;11.900;2024-03-23T05:36:56;95161.72;;;11.23;100.00
11621;BME280;5866;49.094;11.900;2024-03-23T05:39:23;95165.19;;;11.23;100.00
11621;BME280;5866;49.094;11.900;2024-03-23T05:41:49;95157.94;;;11.10;100.00
11621;BME280;5866;49.094;11.900;2024-03-23T05:44:16;95154.69;;;11.15;100.00
11621;BME280;5866;49.094;11.900;2024-03-23T05:46:42;95146.44;;;11.25;100.00
11621;BME280;5866;49.094;11.900;2024-03-23T05:49:15;95149.41;;;11.15;100.00
11621;BME280;5866;49.094;11.900;2024-03-23T05:51:41;95142.88;;;11.17;100.00
11621;BME280;5866;49.094;11.900;2024-03-23T05:54:08;95149.91;;;11.04;100.00
11621;BME280;5866;49.094;11.900;2024-03-23T05:56:33;95141.09;;;10.97;100.00
11621;BME280;5866;49.094;11.900;2024-03-23T05:59:00;95133.97;;;11.25;100.00
11621;BME280;5866;49.094;11.900;2024-03-23T06:01:26;95124.50;;;11.71;100.00
11621;BME280;5866;49.094;11.900;2024-03-23T06:03:54;95126.69;;;11.95;100.00
11621;BME280;5866;49.094;11.900;2024-03-23T06:06:21;95116.78;;;11.76;100.00
11621;BME280;5866;49.094;11.900;2024-03-23T06:08:47;95117.50;;;11.98;100.00
11621;BME280;5866;49.094;11.900;2024-03-23T06:11:13;95102.94;;;11.94;100.00
11621;BME280;5866;49.094;11.900;2024-03-23T06:13:40;95080.53;;;12.10;100.00
11621;BME280;5866;49.094;11.900;2024-03-23T06:16:06;95081.03;;;11.79;100.00
11621;BME280;5866;49.094;11.900;2024-03-23T06:18:32;95077.47;;;12.06;100.00
11621;BME280;5866;49.094;11.900;2024-03-23T06:20:58;95068.66;;;12.06;100.00
11621;BME280;5866;49.094;11.900;2024-03-23T06:23:26;95070.16;;;12.15;100.00
11621;BME280;5866;49.094;11.900;2024-03-23T06:25:52;95069.47;;;13.25;96.06
11621;BME280;5866;49.094;11.900;2024-03-23T06:28:18;95055.38;;;14.40;85.19
11621;BME280;5866;49.094;11.900;2024-03-23T06:30:46;95058.19;;;15.56;73.14
11621;BME280;5866;49.094;11.900;2024-03-23T06:33:12;95064.88;;;16.38;67.05
11621;BME280;5866;49.094;11.900;2024-03-23T06:35:38;95081.56;;;16.69;64.96
11621;BME280;5866;49.094;11.900;2024-03-23T06:38:04;95079.91;;;17.63;60.90
11621;BME280;5866;49.094;11.900;2024-03-23T06:40:32;95067.50;;;18.19;57.74
11621;BME280;5866;49.094;11.900;2024-03-23T06:42:58;95082.47;;;17.92;57.24
11621;BME280;5866;49.094;11.900;2024-03-23T06:45:24;95086.47;;;16.73;59.53
11621;BME280;5866;49.094;11.900;2024-03-23T06:47:50;95089.97;;;15.40;64.70
11621;BME280;5866;49.094;11.900;2024-03-23T06:50:17;95085.03;;;14.12;69.98
11621;BME280;5866;49.094;11.900;2024-03-23T06:52:43;95087.84;;;13.66;75.77
11621;BME280;5866;49.094;11.900;2024-03-23T06:55:10;95081.13;;;13.44;78.10
11621;BME280;5866;49.094;11.900;2024-03-23T06:57:37;95081.97;;;13.18;81.86
11621;BME280;5866;49.094;11.900;2024-03-23T07:00:04;95076.25;;;13.21;83.86
11621;BME280;5866;49.094;11.900;2024-03-23T07:02:30;95080.34;;;13.04;83.61
11621;BME280;5866;49.094;11.900;2024-03-23T07:04:57;95069.88;;;12.96;85.10
11621;BME280;5866;49.094;11.900;2024-03-23T07:07:22;95074.16;;;13.36;83.74
11621;BME280;5866;49.094;11.900;2024-03-23T07:09:49;95080.09;;;13.38;81.84
11621;BME280;5866;49.094;11.900;2024-03-23T07:12:14;95081.34;;;13.23;84.89
11621;BME280;5866;49.094;11.900;2024-03-23T07:14:42;95088.34;;;13.17;87.84
11621;BME280;5866;49.094;11.900;2024-03-23T07:17:08;95118.84;;;12.28;94.07
11621;BME280;5866;49.094;11.900;2024-03-23T07:19:35;95130.72;;;11.85;100.00
11621;BME280;5866;49.094;11.900;2024-03-23T07:22:00;95139.72;;;11.90;100.00
11621;BME280;5866;49.094;11.900;2024-03-23T07:24:27;95155.38;;;11.72;100.00
11621;BME280;5866;49.094;11.900;2024-03-23T07:26:56;95158.28;;;11.56;100.00
11621;BME280;5866;49.094;11.900;2024-03-23T07:29:23;95139.03;;;11.20;100.00
11621;BME280;5866;49.094;11.900;2024-03-23T07:31:51;95159.66;;;11.18;100.00
11621;BME280;5866;49.094;11.900;2024-03-23T07:34:17;95163.94;;;10.98;100.00
11621;BME280;5866;49.094;11.900;2024-03-23T07:36:43;95168.59;;;10.75;100.00
11621;BME280;5866;49.094;11.900;2024-03-23T07:39:09;95172.06;;;10.54;100.00
11621;BME280;5866;49.094;11.900;2024-03-23T07:41:36;95190.06;;;10.59;100.00
11621;BME280;5866;49.094;11.900;2024-03-23T07:44:02;95189.63;;;10.55;100.00
11621;BME280;5866;49.094;11.900;2024-03-23T07:46:28;95196.97;;;10.38;100.00
11621;BME280;5866;49.094;11.900;2024-03-23T07:48:55;95181.28;;;10.22;100.00
11621;BME280;5866;49.094;11.900;2024-03-23T07:51:23;95197.53;;;10.05;100.00
11621;BME280;5866;49.094;11.900;2024-03-23T07:53:49;95214.72;;;9.80;100.00
11621;BME280;5866;49.094;11.900;2024-03-23T07:56:16;95204.28;;;9.78;100.00
11621;BME280;5866;49.094;11.900;2024-03-23T07:58:43;95213.78;;;9.87;100.00
11621;BME280;5866;49.094;11.900;2024-03-23T08:01:12;95204.19;;;9.57;100.00
11621;BME280;5866;49.094;11.900;2024-03-23T08:03:40;95204.81;;;9.44;100.00
11621;BME280;5866;49.094;11.900;2024-03-23T08:06:09;95200.94;;;9.32;100.00
11621;BME280;5866;49.094;11.900;2024-03-23T08:08:36;95208.34;;;9.37;100.00
11621;BME280;5866;49.094;11.900;2024-03-23T08:11:02;95218.00;;;9.30;100.00
11621;BME280;5866;49.094;11.900;2024-03-23T08:13:29;95212.81;;;9.36;100.00
11621;BME280;5866;49.094;11.900;2024-03-23T08:15:59;95202.81;;;9.24;100.00
11621;BME280;5866;49.094;11.900;2024-03-23T08:18:26;95206.06;;;9.11;100.00
11621;BME280;5866;49.094;11.900;2024-03-23T08:20:56;95193.19;;;9.31;100.00
11621;BME280;5866;49.094;11.900;2024-03-23T08:23:24;95191.06;;;9.26;100.00
11621;BME280;5866;49.094;11.900;2024-03-23T08:25:51;95207.44;;;9.07;100.00
11621;BME280;5866;49.094;11.900;2024-03-23T08:28:17;95211.31;;;9.19;100.00
11621;BME280;5866;49.094;11.900;2024-03-23T08:30:43;95218.66;;;9.32;100.00
11621;BME280;5866;49.094;11.900;2024-03-23T08:33:10;95215.06;;;9.25;100.00
11621;BME280;5866;49.094;11.900;2024-03-23T08:35:35;95235.44;;;9.39;100.00
11621;BME280;5866;49.094;11.900;2024-03-23T08:38:03;95243.06;;;9.56;100.00
11621;BME280;5866;49.094;11.900;2024-03-23T08:40:30;95248.75;;;9.68;100.00
11621;BME280;5866;49.094;11.900;2024-03-23T08:42:56;95252.56;;;9.28;100.00
11621;BME280;5866;49.094;11.900;2024-03-23T08:45:22;95248.69;;;9.39;100.00
11621;BME280;5866;49.094;11.900;2024-03-23T08:47:48;95230.94;;;9.25;100.00
11621;BME280;5866;49.094;11.900;2024-03-23T08:50:14;95248.09;;;9.66;100.00
11621;BME280;5866;49.094;11.900;2024-03-23T08:52:41;95240.66;;;9.84;100.00
11621;BME280;5866;49.094;11.900;2024-03-23T08:55:07;95246.97;;;10.12;100.00
11621;BME280;5866;49.094;11.900;2024-03-23T08:57:36;95234.34;;;9.85;100.00
11621;BME280;5866;49.094;11.900;2024-03-23T09:00:02;95250.31;;;9.92;100.00
11621;BME280;5866;49.094;11.900;2024-03-23T09:02:29;95234.72;;;10.41;100.00
11621;BME280;5866;49.094;11.900;2024-03-23T09:04:54;95245.84;;;10.65;100.00
11621;BME280;5866;49.094;11.900;2024-03-23T09:07:21;95236.59;;;10.97;100.00
11621;BME280;5866;49.094;11.900;2024-03-23T09:09:47;95253.53;;;11.17;100.00
11621;BME280;5866;49.094;11.900;2024-03-23T09:12:13;95258.56;;;10.91;100.00
11621;BME280;5866;49.094;11.900;2024-03-23T09:14:40;95257.78;;;10.25;100.00
11621;BME280;5866;49.094;11.900;2024-03-23T09:17:07;95267.97;;;10.28;100.00
11621;BME280;5866;49.094;11.900;2024-03-23T09:19:33;95285.59;;;10.65;100.00
11621;BME280;5866;49.094;11.900;2024-03-23T09:22:00;95260.72;;;10.66;100.00
11621;BME280;5866;49.094;11.900;2024-03-23T09:24:25;95283.13;;;10.78;100.00
11621;BME280;5866;49.094;11.900;2024-03-23T09:26:52;95289.44;;;11.13;100.00
11621;BME280;5866;49.094;11.900;2024-03-23T09:29:18;95273.31;;;10.79;100.00
11621;BME280;5866;49.094;11.900;2024-03-23T09:31:46;95247.50;;;10.87;100.00
11621;BME280;5866;49.094;11.900;2024-03-23T09:34:11;95252.13;;;11.00;100.00
11621;BME280;5866;49.094;11.900;2024-03-23T09:36:38;95258.25;;;10.65;100.00
11621;BME280;5866;49.094;11.900;2024-03-23T09:39:04;95272.09;;;10.96;100.00
11621;BME280;5866;49.094;11.900;2024-03-23T09:41:31;95262.06;;;10.77;100.00
11621;BME280;5866;49.094;11.900;2024-03-23T09:43:56;95274.00;;;10.52;100.00
11621;BME280;5866;49.094;11.900;2024-03-23T09:46:23;95293.19;;;10.83;100.00
11621;BME280;5866;49.094;11.900;2024-03-23T09:48:50;95312.22;;;10.72;100.00
11621;BME280;5866;49.094;11.900;2024-03-23T09:51:17;95328.13;;;9.31;100.00
11621;BME280;5866;49.094;11.900;2024-03-23T09:53:42;95334.41;;;9.07;100.00
11621;BME280;5866;49.094;11.900;2024-03-23T09:56:09;95333.16;;;8.95;100.00
11621;BME280;5866;49.094;11.900;2024-03-23T09:58:35;95345.47;;;9.11;100.00
11621;BME280;5866;49.094;11.900;2024-03-23T10:01:02;95337.94;;;10.05;100.00
11621;BME280;5866;49.094;11.900;2024-03-23T10:03:28;95345.50;;;10.60;100.00
11621;BME280;5866;49.094;11.900;2024-03-23T10:06:03;95352.59;;;11.03;100.00
11621;BME280;5866;49.094;11.900;2024-03-23T10:08:30;95342.50;;;9.59;100.00
11621;BME280;5866;49.094;11.900;2024-03-23T10:11:12;95369.47;;;9.32;100.00
11621;BME280;5866;49.094;11.900;2024-03-23T10:13:41;95384.44;;;9.93;100.00
11621;BME280;5866;49.094;11.900;2024-03-23T10:16:08;95384.88;;;10.33;100.00
11621;BME280;5866;49.094;11.900;2024-03-23T10:18:37;95392.41;;;10.45;100.00
11621;BME280;5866;49.094;11.900;2024-03-23T10:21:09;95384.22;;;9.49;100.00
11621;BME280;5866;49.094;11.900;2024-03-23T10:23:37;95399.88;;;9.36;100.00
11621;BME280;5866;49.094;11.900;2024-03-23T10:26:13;95416.06;;;10.09;99.71
11621;BME280;5866;49.094;11.900;2024-03-23T10:28:51;95416.94;;;10.90;90.50
11621;BME280;5866;49.094;11.900;2024-03-23T10:31:17;95418.28;;;10.43;90.47
11621;BME280;5866;49.094;11.900;2024-03-23T10:33:45;95418.91;;;10.07;92.23
11621;BME280;5866;49.094;11.900;2024-03-23T10:36:12;95430.56;;;9.98;92.47
11621;BME280;5866;49.094;11.900;2024-03-23T10:38:40;95420.91;;;10.05;90.04
11621;BME280;5866;49.094;11.900;2024-03-23T10:41:07;95413.25;;;9.88;93.53
11621;BME280;5866;49.094;11.900;2024-03-23T10:43:36;95434.91;;;9.46;96.21
11621;BME280;5866;49.094;11.900;2024-03-23T10:46:02;95429.03;;;9.28;97.96
11621;BME280;5866;49.094;11.900;2024-03-23T10:48:28;95431.22;;;9.47;100.00
11621;BME280;5866;49.094;11.900;2024-03-23T10:50:54;95435.28;;;9.35;100.00
11621;BME280;5866;49.094;11.900;2024-03-23T10:53:25;95444.00;;;8.66;100.00
11621;BME280;5866;49.094;11.900;2024-03-23T10:55:51;95459.72;;;8.51;100.00
11621;BME280;5866;49.094;11.900;2024-03-23T10:58:21;95464.97;;;8.59;100.00
11621;BME280;5866;49.094;11.900;2024-03-23T11:00:49;95478.56;;;8.56;100.00
11621;BME280;5866;49.094;11.900;2024-03-23T11:03:30;95483.06;;;8.95;100.00
11621;BME280;5866;49.094;11.900;2024-03-23T11:05:55;95483.28;;;8.85;100.00
11621;BME280;5866;49.094;11.900;2024-03-23T11:08:32;95460.13;;;8.87;100.00
11621;BME280;5866;49.094;11.900;2024-03-23T11:11:28;95447.91;;;8.78;100.00
11621;BME280;5866;49.094;11.900;2024-03-23T11:13:57;95430.03;;;8.88;100.00
11621;BME280;5866;49.094;11.900;2024-03-23T11:16:24;95430.81;;;8.97;100.00
11621;BME280;5866;49.094;11.900;2024-03-23T11:18:53;95439.00;;;9.18;100.00
11621;BME280;5866;49.094;11.900;2024-03-23T11:21:52;95409.56;;;9.21;100.00
11621;BME280;5866;49.094;11.900;2024-03-23T11:24:21;95412.75;;;9.39;100.00
11621;BME280;5866;49.094;11.900;2024-03-23T11:26:47;95434.06;;;9.45;99.96
11621;BME280;5866;49.094;11.900;2024-03-23T11:29:15;95469.25;;;9.54;100.00
11621;BME280;5866;49.094;11.900;2024-03-23T11:31:46;95469.34;;;9.69;96.83
11621;BME280;5866;49.094;11.900;2024-03-23T11:34:13;95469.06;;;9.86;91.11
11621;BME280;5866;49.094;11.900;2024-03-23T11:36:40;95478.75;;;9.71;91.04
11621;BME280;5866;49.094;11.900;2024-03-23T11:39:13;95463.84;;;9.70;88.86
11621;BME280;5866;49.094;11.900;2024-03-23T11:41:50;95472.16;;;9.67;86.37
11621;BME280;5866;49.094;11.900;2024-03-23T11:44:17;95491.53;;;9.29;91.90
11621;BME280;5866;49.094;11.900;2024-03-23T11:46:43;95511.22;;;8.79;93.81
11621;BME280;5866;49.094;11.900;2024-03-23T11:49:22;95549.22;;;8.22;99.17
11621;BME280;5866;49.094;11.900;2024-03-23T11:51:48;95539.53;;;7.65;100.00
11621;BME280;5866;49.094;11.900;2024-03-23T11:54:15;95540.13;;;7.43;100.00
11621;BME280;5866;49.094;11.900;2024-03-23T11:56:55;95535.69;;;7.43;100.00
11621;BME280;5866;49.094;11.900;2024-03-23T11:59:32;95541.44;;;7.39;100.00
11621;BME280;5866;49.094;11.900;2024-03-23T12:01:58;95549.00;;;7.42;100.00
11621;BME280;5866;49.094;11.900;2024-03-23T12:04:26;95550.81;;;7.91;100.00
11621;BME280;5866;49.094;11.900;2024-03-23T12:07:08;95563.66;;;7.86;100.00
11621;BME280;5866;49.094;11.900;2024-03-23T12:09:35;95565.22;;;8.21;96.09
11621;BME280;5866;49.094;11.900;2024-03-23T12:12:10;95552.50;;;8.80;91.59
11621;BME280;5866;49.094;11.900;2024-03-23T12:14:37;95544.59;;;8.24;89.79
11621;BME280;5866;49.094;11.900;2024-03-23T12:17:10;95519.03;;;8.33;92.21
11621;BME280;5866;49.094;11.900;2024-03-23T12:19:37;95534.34;;;8.13;90.22
11621;BME280;5866;49.094;11.900;2024-03-23T12:22:03;95547.91;;;8.34;90.22
11621;BME280;5866;49.094;11.900;2024-03-23T12:24:31;95516.56;;;8.39;86.04
11621;BME280;5866;49.094;11.900;2024-03-23T12:27:00;95487.97;;;8.43;87.20
11621;BME280;5866;49.094;11.900;2024-03-23T12:29:29;95496.63;;;9.00;83.32
11621;BME280;5866;49.094;11.900;2024-03-23T12:31:55;95499.25;;;9.46;80.50
11621;BME280;5866;49.094;11.900;2024-03-23T12:34:22;95510.16;;;9.43;76.94
11621;BME280;5866;49.094;11.900;2024-03-23T12:36:48;95518.09;;;8.97;77.26
11621;BME280;5866;49.094;11.900;2024-03-23T12:39:14;95520.34;;;9.16;77.58
11621;BME280;5866;49.094;11.900;2024-03-23T12:41:40;95495.41;;;9.10;74.49
11621;BME280;5866;49.094;11.900;2024-03-23T12:44:06;95476.06;;;9.10;73.45
11621;BME280;5866;49.094;11.900;2024-03-23T12:46:35;95500.78;;;9.63;77.59
11621;BME280;5866;49.094;11.900;2024-03-23T12:49:01;95508.44;;;9.58;72.29
11621;BME280;5866;49.094;11.900;2024-03-23T12:51:27;95504.03;;;9.43;69.89
11621;BME280;5866;49.094;11.900;2024-03-23T12:53:54;95525.50;;;9.56;71.99
11621;BME280;5866;49.094;11.900;2024-03-23T12:56:19;95529.81;;;9.57;72.59
11621;BME280;5866;49.094;11.900;2024-03-23T12:58:46;95520.63;;;9.37;76.55
11621;BME280;5866;49.094;11.900;2024-03-23T13:01:15;95506.69;;;9.43;73.99
11621;BME280;5866;49.094;11.900;2024-03-23T13:03:46;95499.09;;;9.40;74.03
11621;BME280;5866;49.094;11.900;2024-03-23T13:06:12;95503.25;;;9.34;72.63
11621;BME280;5866;49.094;11.900;2024-03-23T13:08:38;95499.09;;;9.40;71.16
11621;BME280;5866;49.094;11.900;2024-03-23T13:11:05;95495.63;;;9.39;70.21
11621;BME280;5866;49.094;11.900;2024-03-23T13:13:31;95502.72;;;9.08;69.73
11621;BME280;5866;49.094;11.900;2024-03-23T13:15:58;95505.13;;;9.18;73.40
11621;BME280;5866;49.094;11.900;2024-03-23T13:18:24;95507.50;;;8.97;69.15
11621;BME280;5866;49.094;11.900;2024-03-23T13:20:52;95505.78;;;8.57;71.37
11621;BME280;5866;49.094;11.900;2024-03-23T13:23:18;95498.72;;;8.33;71.33
11621;BME280;5866;49.094;11.900;2024-03-23T13:25:49;95522.16;;;8.60;72.78
11621;BME280;5866;49.094;11.900;2024-03-23T13:28:15;95507.91;;;8.69;71.66
11621;BME280;5866;49.094;11.900;2024-03-23T13:30:49;95510.56;;;8.61;67.24
11621;BME280;5866;49.094;11.900;2024-03-23T13:33:15;95507.63;;;8.56;67.63
11621;BME280;5866;49.094;11.900;2024-03-23T13:35:49;95514.75;;;8.40;66.83
11621;BME280;5866;49.094;11.900;2024-03-23T13:38:17;95519.03;;;8.33;66.94
11621;BME280;5866;49.094;11.900;2024-03-23T13:40:52;95509.28;;;8.33;66.81
11621;BME280;5866;49.094;11.900;2024-03-23T13:43:20;95516.88;;;8.60;67.68
11621;BME280;5866;49.094;11.900;2024-03-23T13:45:46;95513.84;;;8.71;64.70
11621;BME280;5866;49.094;11.900;2024-03-23T13:48:13;95512.38;;;8.77;64.17
11621;BME280;5866;49.094;11.900;2024-03-23T13:50:39;95500.56;;;9.04;66.10